Coral Coast — WDF5120 — position and weather

sailwx.info

Track history (hours):
 
Tides and Currents Weather Stations Pressure Air Temp Water Temp Dewpoint Dewpoint Depression Visibility Wind Speed Wind Dir Waves Ship Positions

Coral Coast

Owner: Dann MarineTowing, LC., Chesapeake City, MD. More information available from US FCC via Universal Licensing System and Coast Guard Vessel Documentation Center.

Last reported at 2014-Oct-21 10:18 UTC. Time now 2014-Oct-24 07:13 UTC.
Position N 34°29' W 076°14'.

Length 70 m; draft 5.3 m.

Type: Tug. MMSI: 367459570.

Date/timePositionNaut miles runAvg speedWind from/ knotsBaromVisibWave heightAir tempDewpointWater temp
2014-Oct-21 10:18N 34°29' W 076°14'6 7.9
2014-Oct-21 09:33N 34°25' W 076°19'8 8.0
2014-Oct-21 08:33N 34°21' W 076°27'  
2014-Oct-16 06:32N 39°25' W 074°11'7 7.6
2014-Oct-16 05:33N 39°32' W 074°06'7 7.4
2014-Oct-16 04:33N 39°38' W 074°02'8 7.6
2014-Oct-16 03:33N 39°45' W 073°57'7 7.3
2014-Oct-16 02:32N 39°52' W 073°56'8 7.3
2014-Oct-16 01:28N 39°60' W 073°56'14 7.4
2014-Oct-15 23:30N 40°14' W 073°53'7 7.5
2014-Oct-15 22:32N 40°21' W 073°53'8 7.7
2014-Oct-15 21:33N 40°29' W 073°55'8 8.3
2014-Oct-15 20:33N 40°35' W 074°02'8 7.5
2014-Oct-15 19:33N 40°42' W 073°60'6 6.0
2014-Oct-15 18:32N 40°47' W 073°55'3 3.2
2014-Oct-15 17:28N 40°46' W 073°51'0 0.2
2014-Oct-15 16:21N 40°46' W 073°51'0 0.0
2014-Oct-15 15:11N 40°46' W 073°51'0 0.0
2014-Oct-15 14:29N 40°46' W 073°51'0 0.0
2014-Oct-15 12:21N 40°46' W 073°51'0 0.0
2014-Oct-15 11:33N 40°46' W 073°51'0 0.0
2014-Oct-15 10:33N 40°46' W 073°51'0 0.0
2014-Oct-15 09:33N 40°46' W 073°51'0 0.0
2014-Oct-15 08:33N 40°46' W 073°51'0 0.0
2014-Oct-15 07:33N 40°46' W 073°51'0 0.0
2014-Oct-15 06:33N 40°46' W 073°51'0 0.0
2014-Oct-15 05:33N 40°46' W 073°51'0 0.0
2014-Oct-15 04:33N 40°46' W 073°51'0 0.0
2014-Oct-15 03:33N 40°46' W 073°51'0 0.0
2014-Oct-15 02:33N 40°46' W 073°51'0 0.0
2014-Oct-15 01:22N 40°46' W 073°51'0 0.0
2014-Oct-15 00:33N 40°46' W 073°51'0 0.0
2014-Oct-14 23:32N 40°46' W 073°51'0 0.0
2014-Oct-14 22:33N 40°46' W 073°51'0 0.0
2014-Oct-14 21:32N 40°46' W 073°51'0 0.0
2014-Oct-14 20:33N 40°46' W 073°51'0 0.0
2014-Oct-14 18:33N 40°46' W 073°51'0 0.0
2014-Oct-14 17:33N 40°46' W 073°51'0 0.0
2014-Oct-14 16:32N 40°46' W 073°51'0 0.0
2014-Oct-14 15:31N 40°46' W 073°51'0 0.0
2014-Oct-14 14:24N 40°46' W 073°51'0 0.0
2014-Oct-14 13:16N 40°46' W 073°51'0 0.0
2014-Oct-14 12:33N 40°46' W 073°51'0 0.0
2014-Oct-14 11:29N 40°46' W 073°51'3 3.1
2014-Oct-14 10:32N 40°48' W 073°53'7 7.2
2014-Oct-14 09:33N 40°42' W 073°59'8 8.3
2014-Oct-14 08:33N 40°39' W 074°09'2 2.3
2014-Oct-14 07:29N 40°38' W 074°12'0 0.0
2014-Oct-14 06:25N 40°38' W 074°12'0 0.0
2014-Oct-14 05:30N 40°38' W 074°12'0 0.0
2014-Oct-14 04:28N 40°38' W 074°12'5 5.1
2014-Oct-14 03:32N 40°39' W 074°06'12 9.4
2014-Oct-14 02:13N 40°48' W 073°54'3 0.4
2014-Oct-13 18:23N 40°46' W 073°51'3 4.1
2014-Oct-13 17:33N 40°48' W 073°54'6 5.8
2014-Oct-13 16:34N 40°43' W 073°58'5 5.0
2014-Oct-13 15:33N 40°39' W 074°02'5 4.7
2014-Oct-13 14:33N 40°35' W 074°02'6 6.0
2014-Oct-13 13:34N 40°30' W 073°56'5 5.2
2014-Oct-13 12:32N 40°25' W 073°54'5 5.4
2014-Oct-13 11:33N 40°20' W 073°53'6 5.7
2014-Oct-13 10:33N 40°14' W 073°54'6 5.6
2014-Oct-13 09:33N 40°09' W 073°55'6 5.9
2014-Oct-13 08:34N 40°03' W 073°56'6 5.6
2014-Oct-13 07:31N 39°57' W 073°57'6 5.7
2014-Oct-13 06:31N 39°51' W 073°58'6 5.9
2014-Oct-13 05:33N 39°46' W 073°59'7 6.6
2014-Oct-13 04:33N 39°40' W 074°02'7 7.2
2014-Oct-13 03:33N 39°33' W 074°06'248 6.3
2014-Oct-11 12:10N 35°32' W 075°21'13 8.2
2014-Oct-11 10:34N 35°19' W 075°21'  
Track history (hours):
 
Tides and Currents Weather Stations Pressure Air Temp Water Temp Dewpoint Dewpoint Depression Visibility Wind Speed Wind Dir Waves Ship Positions

Coral Coast

Owner: Dann MarineTowing, LC., Chesapeake City, MD. More information available from US FCC via Universal Licensing System and Coast Guard Vessel Documentation Center.

Last reported at 2014-Oct-21 10:18 UTC. Time now 2014-Oct-24 07:13 UTC.
Position N 34°29' W 076°14'.

Length 70 m; draft 5.3 m.

Type: Tug. MMSI: 367459570.

Date/timePositionNaut miles runAvg speedWind from/ knotsBaromVisibWave heightAir tempDewpointWater temp
2014-Oct-21 10:18N 34°29' W 076°14'6 7.9
2014-Oct-21 09:33N 34°25' W 076°19'8 8.0
2014-Oct-21 08:33N 34°21' W 076°27'  
2014-Oct-16 06:32N 39°25' W 074°11'7 7.6
2014-Oct-16 05:33N 39°32' W 074°06'7 7.4
2014-Oct-16 04:33N 39°38' W 074°02'8 7.6
2014-Oct-16 03:33N 39°45' W 073°57'7 7.3
2014-Oct-16 02:32N 39°52' W 073°56'8 7.3
2014-Oct-16 01:28N 39°60' W 073°56'14 7.4
2014-Oct-15 23:30N 40°14' W 073°53'7 7.5
2014-Oct-15 22:32N 40°21' W 073°53'8 7.7
2014-Oct-15 21:33N 40°29' W 073°55'8 8.3
2014-Oct-15 20:33N 40°35' W 074°02'8 7.5
2014-Oct-15 19:33N 40°42' W 073°60'6 6.0
2014-Oct-15 18:32N 40°47' W 073°55'3 3.2
2014-Oct-15 17:28N 40°46' W 073°51'0 0.2
2014-Oct-15 16:21N 40°46' W 073°51'0 0.0
2014-Oct-15 15:11N 40°46' W 073°51'0 0.0
2014-Oct-15 14:29N 40°46' W 073°51'0 0.0
2014-Oct-15 12:21N 40°46' W 073°51'0 0.0
2014-Oct-15 11:33N 40°46' W 073°51'0 0.0
2014-Oct-15 10:33N 40°46' W 073°51'0 0.0
2014-Oct-15 09:33N 40°46' W 073°51'0 0.0
2014-Oct-15 08:33N 40°46' W 073°51'0 0.0
2014-Oct-15 07:33N 40°46' W 073°51'0 0.0
2014-Oct-15 06:33N 40°46' W 073°51'0 0.0
2014-Oct-15 05:33N 40°46' W 073°51'0 0.0
2014-Oct-15 04:33N 40°46' W 073°51'0 0.0
2014-Oct-15 03:33N 40°46' W 073°51'0 0.0
2014-Oct-15 02:33N 40°46' W 073°51'0 0.0
2014-Oct-15 01:22N 40°46' W 073°51'0 0.0
2014-Oct-15 00:33N 40°46' W 073°51'0 0.0
2014-Oct-14 23:32N 40°46' W 073°51'0 0.0
2014-Oct-14 22:33N 40°46' W 073°51'0 0.0
2014-Oct-14 21:32N 40°46' W 073°51'0 0.0
2014-Oct-14 20:33N 40°46' W 073°51'0 0.0
2014-Oct-14 18:33N 40°46' W 073°51'0 0.0
2014-Oct-14 17:33N 40°46' W 073°51'0 0.0
2014-Oct-14 16:32N 40°46' W 073°51'0 0.0
2014-Oct-14 15:31N 40°46' W 073°51'0 0.0
2014-Oct-14 14:24N 40°46' W 073°51'0 0.0
2014-Oct-14 13:16N 40°46' W 073°51'0 0.0
2014-Oct-14 12:33N 40°46' W 073°51'0 0.0
2014-Oct-14 11:29N 40°46' W 073°51'3 3.1
2014-Oct-14 10:32N 40°48' W 073°53'7 7.2
2014-Oct-14 09:33N 40°42' W 073°59'8 8.3
2014-Oct-14 08:33N 40°39' W 074°09'2 2.3
2014-Oct-14 07:29N 40°38' W 074°12'0 0.0
2014-Oct-14 06:25N 40°38' W 074°12'0 0.0
2014-Oct-14 05:30N 40°38' W 074°12'0 0.0
2014-Oct-14 04:28N 40°38' W 074°12'5 5.1
2014-Oct-14 03:32N 40°39' W 074°06'12 9.4
2014-Oct-14 02:13N 40°48' W 073°54'3 0.4
2014-Oct-13 18:23N 40°46' W 073°51'3 4.1
2014-Oct-13 17:33N 40°48' W 073°54'6 5.8
2014-Oct-13 16:34N 40°43' W 073°58'5 5.0
2014-Oct-13 15:33N 40°39' W 074°02'5 4.7
2014-Oct-13 14:33N 40°35' W 074°02'6 6.0
2014-Oct-13 13:34N 40°30' W 073°56'5 5.2
2014-Oct-13 12:32N 40°25' W 073°54'5 5.4
2014-Oct-13 11:33N 40°20' W 073°53'6 5.7
2014-Oct-13 10:33N 40°14' W 073°54'6 5.6
2014-Oct-13 09:33N 40°09' W 073°55'6 5.9
2014-Oct-13 08:34N 40°03' W 073°56'6 5.6
2014-Oct-13 07:31N 39°57' W 073°57'6 5.7
2014-Oct-13 06:31N 39°51' W 073°58'6 5.9
2014-Oct-13 05:33N 39°46' W 073°59'7 6.6
2014-Oct-13 04:33N 39°40' W 074°02'7 7.2
2014-Oct-13 03:33N 39°33' W 074°06'248 6.3
2014-Oct-11 12:10N 35°32' W 075°21'13 8.2
2014-Oct-11 10:34N 35°19' W 075°21'  

Dump ship's entire track history